This is the latest recevied weather packets stored in our database for station/object DB0ROB-10. If no packets are shown the sender has not sent any weather packets the latest 10 day(s).
| Time | Temp. | Humidity | Pressure | Rain* | Wind** | Luminosity | Snow |
|---|---|---|---|---|---|---|---|
| 1777988801 | 13.89° C | 71% | 1008.8 hPa | - | - | - | - |
| 1777987901 | 14.44° C | 69% | 1008.9 hPa | - | - | - | - |
| 1777987000 | 14.44° C | 69% | 1009 hPa | - | - | - | - |
| 1777986100 | 13.89° C | 73% | 1009.3 hPa | - | - | - | - |
| 1777985199 | 13.33° C | 78% | 1009.4 hPa | - | - | - | - |
| 1777984299 | 12.78° C | 79% | 1009.3 hPa | - | - | - | - |
| 1777983399 | 13.33° C | 79% | 1009.3 hPa | - | - | - | - |
| 1777982499 | 13.33° C | 76% | 1009.3 hPa | - | - | - | - |
| 1777981598 | 13.89° C | 73% | 1009.2 hPa | - | - | - | - |
| 1777980697 | 15° C | 68% | 1009.1 hPa | - | - | - | - |
| 1777979797 | 16.67° C | 62% | 1009 hPa | - | - | - | - |
| 1777978897 | 17.22° C | 55% | 1009 hPa | - | - | - | - |
| 1777977997 | 17.22° C | 56% | 1009.1 hPa | - | - | - | - |
| 1777977096 | 16.11° C | 58% | 1009.1 hPa | - | - | - | - |
| 1777976196 | 16.67° C | 56% | 1009.1 hPa | - | - | - | - |
| 1777975296 | 17.22° C | 54% | 1009.1 hPa | - | - | - | - |
| 1777974396 | 18.33° C | 51% | 1009.1 hPa | - | - | - | - |
| 1777973495 | 17.22° C | 55% | 1009.1 hPa | - | - | - | - |
| 1777972595 | 15.56° C | 58% | 1009.3 hPa | - | - | - | - |
| 1777971695 | 16.67° C | 55% | 1009.4 hPa | - | - | - | - |
| 1777970794 | 16.67° C | 55% | 1009.4 hPa | - | - | - | - |
| 1777969893 | 17.22° C | 53% | 1009.4 hPa | - | - | - | - |
| 1777968993 | 16.67° C | 54% | 1009.4 hPa | - | - | - | - |
| 1777968092 | 16.67° C | 54% | 1009.5 hPa | - | - | - | - |
| 1777967200 | 17.22° C | 52% | 1009.7 hPa | - | - | - | - |
* Rain since midnight (hover to see other rain measurements)
** Current wind speed in m/s (hover to see current wind gust speed)